Decoded Metar for KMMV (MACKMINNVILLE in OR, USA) (IATA:MMV) | Meteo·Mobile Aviation Weather
aviador You're here:

KMMV Decoded Metar

MACKMINNVILLE in OR, USA
Report Time2018-09-21 11:53:00
UTC Time2018-09-21 12:08:40
Flight Rules vfr VFR
WindCalm
Visibility9999 m
Phenomena:N/A
Clouds:N/A
CeilingNone
Temp08°C (ISA -7)
Dew Point08°C (100% RH)
AAT7.5°C
QNH1017 hPa
Density Alt-636 ft
Elevation157 ft
Report Wrong Elevation
Raw Report
KMMV 211153Z AUTO 00000KT 10SM CLR 08/08 A3003 RMK AO2 SLP167
T00830083 10133 20072 58010=

Extra information for KMMV:More info

Metar Taf Metar & Taf Last 4 Metars F.Rules Stats Wind Profile Meteogram Temp Stats Airport Information Weather charts Add Link Nearby VenuesMetar ALERT Operation Metar Decoded Social comments

AIRNAV info for KMMV